Time;durP1;ratioP1;P1;durP2;ratioP2;P2;SDS_P1;SDS_P2;PMS_P1;PMS_P2;Temp;Humidity;BMP_temperature;BMP_pressure;BME280_temperature;BME280_humidity;BME280_pressure;Samples;Min_cycle;Max_cycle;Signal;HPM_P1;HPM_P2
2022/12/02 00:02:25;;;;;;;14.60;8.45;;;;;;;3.21;75.10;95096.44;5013741;28;20083;-73
2022/12/02 00:04:55;;;;;;;11.48;7.30;;;;;;;3.44;74.54;95122.72;5014949;28;20514;-73
2022/12/02 00:07:20;;;;;;;10.75;8.23;;;;;;;3.32;74.73;95121.59;5030767;28;20025;-73
2022/12/02 00:09:46;;;;;;;15.85;12.63;;;;;;;3.33;74.78;95118.09;5022781;28;20091;-73
2022/12/02 00:12:25;;;;;;;14.15;9.48;;;;;;;3.25;74.61;95118.47;5032945;28;20525;-73
2022/12/02 00:15:00;;;;;;;13.40;8.45;;;;;;;3.27;74.62;95118.41;5033405;28;20078;-73
2022/12/02 00:17:26;;;;;;;10.05;6.85;;;;;;;3.22;74.70;95110.09;5033147;28;20033;-74
2022/12/02 00:19:51;;;;;;;8.50;5.75;;;;;;;3.28;74.73;95118.31;5015010;28;20513;-73
2022/12/02 00:22:17;;;;;;;7.43;5.07;;;;;;;3.25;74.35;95125.34;5013372;28;20483;-73
2022/12/02 00:24:43;;;;;;;9.93;6.60;;;;;;;3.26;74.62;95127.00;5029712;28;20029;-72
2022/12/02 00:27:08;;;;;;;8.48;5.65;;;;;;;3.26;74.29;95117.59;5031880;28;20030;-73
2022/12/02 00:29:33;;;;;;;16.27;9.88;;;;;;;3.23;74.55;95116.88;5045376;28;20037;-73
2022/12/02 00:31:59;;;;;;;11.65;7.55;;;;;;;3.14;74.80;95108.72;5016670;28;20036;-73
2022/12/02 00:34:24;;;;;;;9.90;6.25;;;;;;;3.20;74.92;95122.19;5040453;28;20033;-72
2022/12/02 00:36:50;;;;;;;10.13;5.97;;;;;;;3.16;75.13;95120.69;5032303;28;20091;-73
2022/12/02 00:39:15;;;;;;;9.55;6.30;;;;;;;3.19;74.89;95111.09;5062264;28;20506;-73
2022/12/02 00:41:41;;;;;;;9.77;7.18;;;;;;;3.21;74.57;95111.84;5031974;28;20495;-73
2022/12/02 00:46:50;;;;;;;13.18;10.50;;;;;;;3.22;75.29;95116.06;5034508;28;20526;-73
2022/12/02 00:49:16;;;;;;;13.90;9.20;;;;;;;3.24;74.83;95113.44;5033249;28;20038;-73
2022/12/02 00:51:42;;;;;;;11.60;8.63;;;;;;;3.21;74.84;95105.88;5016559;28;20034;-73
2022/12/02 00:54:07;;;;;;;11.75;7.72;;;;;;;3.21;75.40;95108.44;5016975;28;20488;-73
2022/12/02 00:56:33;;;;;;;8.90;6.03;;;;;;;3.00;75.76;95100.88;5050180;28;20549;-73
2022/12/02 00:58:59;;;;;;;7.80;5.35;;;;;;;3.01;75.78;95100.00;5052026;28;20041;-73
2022/12/02 01:01:24;;;;;;;7.53;4.63;;;;;;;2.93;75.78;95103.84;5052632;28;20098;-73
2022/12/02 01:03:50;;;;;;;9.15;5.18;;;;;;;2.83;76.28;95090.59;5033063;28;20423;-73
2022/12/02 01:06:15;;;;;;;9.30;6.00;;;;;;;2.93;76.32;95098.69;5018833;28;20044;-72
2022/12/02 01:08:41;;;;;;;8.77;6.20;;;;;;;3.06;76.11;95104.88;5052879;28;20044;-73
2022/12/02 01:11:06;;;;;;;19.88;9.07;;;;;;;3.01;75.97;95092.28;5054361;28;20021;-73
2022/12/02 01:13:32;;;;;;;11.20;7.05;;;;;;;2.96;76.20;95089.09;5052007;28;20091;-73
2022/12/02 01:15:57;;;;;;;9.90;6.93;;;;;;;3.02;75.51;95093.94;5036036;28;20033;-72
2022/12/02 01:18:23;;;;;;;9.27;6.70;;;;;;;3.00;75.91;95090.59;5052629;28;20025;-73
2022/12/02 01:20:48;;;;;;;8.25;6.63;;;;;;;2.97;76.04;95090.75;5036231;28;20087;-73
2022/12/02 01:23:13;;;;;;;8.60;5.18;;;;;;;2.93;75.75;95094.41;5042839;28;20030;-73
2022/12/02 01:25:39;;;;;;;7.88;5.63;;;;;;;2.84;76.33;95075.16;5032806;28;20472;-73
2022/12/02 01:28:05;;;;;;;10.57;5.78;;;;;;;2.97;76.10;95085.63;5032473;28;20029;-73
2022/12/02 01:30:30;;;;;;;7.72;6.13;;;;;;;2.98;75.68;95071.06;5016265;28;20037;-72
2022/12/02 01:32:56;;;;;;;7.30;5.57;;;;;;;3.08;75.45;95082.53;5032475;28;20506;-73
2022/12/02 01:35:21;;;;;;;9.48;5.35;;;;;;;3.06;75.00;95080.03;5032257;28;20029;-73
2022/12/02 01:37:47;;;;;;;7.78;5.78;;;;;;;3.09;74.70;95085.03;5032327;28;20037;-73
2022/12/02 01:40:12;;;;;;;9.32;6.28;;;;;;;3.07;74.33;95086.84;5016981;28;20065;-73
2022/12/02 01:42:38;;;;;;;8.40;6.50;;;;;;;3.02;75.26;95087.97;5035690;28;20539;-73
2022/12/02 01:45:04;;;;;;;9.52;6.38;;;;;;;3.06;75.07;95085.16;5052360;28;20519;-73
2022/12/02 01:47:29;;;;;;;9.90;6.95;;;;;;;3.07;75.42;95083.47;5035262;28;20040;-73
2022/12/02 01:49:55;;;;;;;11.35;6.82;;;;;;;3.07;74.51;95075.75;5045322;28;20041;-73
2022/12/02 01:52:20;;;;;;;9.98;6.28;;;;;;;3.11;75.07;95085.78;5031805;28;20517;-73
2022/12/02 01:54:46;;;;;;;11.68;7.53;;;;;;;3.06;74.98;95082.59;5015869;28;20030;-73
2022/12/02 01:57:12;;;;;;;14.73;9.02;;;;;;;3.01;74.99;95083.72;5015297;28;20581;-73
2022/12/02 01:59:39;;;;;;;11.23;8.05;;;;;;;3.05;74.91;95090.41;5026400;28;20041;-73
2022/12/02 02:02:43;;;;;;;11.40;7.93;;;;;;;3.08;74.92;95096.19;5035229;28;20032;-73
2022/12/02 02:05:12;;;;;;;10.77;7.25;;;;;;;3.05;75.29;95096.34;5050870;28;20537;-73
2022/12/02 02:07:38;;;;;;;13.27;7.68;;;;;;;3.08;74.48;95087.69;5000998;28;20098;-73
2022/12/02 02:10:04;;;;;;;5.85;4.38;;;;;;;3.18;74.61;95103.47;5025449;28;20046;-73
2022/12/02 02:12:29;;;;;;;6.00;4.18;;;;;;;3.21;73.98;95103.31;5015263;28;20462;-73
2022/12/02 02:14:55;;;;;;;6.55;4.63;;;;;;;3.12;74.03;95095.16;5031750;28;20037;-73
2022/12/02 02:17:21;;;;;;;4.47;3.60;;;;;;;3.20;74.65;95106.78;5038260;28;20033;-73
2022/12/02 02:19:46;;;;;;;6.20;4.18;;;;;;;3.13;73.83;95080.59;5035197;28;20505;-73
2022/12/02 02:22:17;;;;;;;6.93;4.05;;;;;;;3.18;74.07;95094.03;5051484;28;20075;-73
2022/12/02 02:24:43;;;;;;;12.20;7.38;;;;;;;3.09;74.27;95092.75;5035482;28;20029;-73
2022/12/02 02:27:08;;;;;;;19.70;11.35;;;;;;;3.06;74.50;95090.31;5047007;28;20497;-73
2022/12/02 02:29:34;;;;;;;17.13;9.55;;;;;;;3.14;74.61;95101.03;5051385;28;20029;-73
2022/12/02 02:32:00;;;;;;;11.90;7.88;;;;;;;3.12;74.46;95094.31;5051098;28;20056;-73
2022/12/02 02:34:26;;;;;;;11.90;6.70;;;;;;;3.09;74.53;95090.19;5031463;28;20129;-73
2022/12/02 02:36:51;;;;;;;9.45;5.07;;;;;;;3.20;74.53;95111.91;5031552;28;20071;-73
2022/12/02 02:39:17;;;;;;;8.90;4.85;;;;;;;3.11;74.58;95103.75;5014668;28;20075;-73
2022/12/02 02:41:42;;;;;;;8.43;5.55;;;;;;;3.16;74.58;95110.41;5014676;28;20029;-73
2022/12/02 02:44:08;;;;;;;10.15;6.82;;;;;;;3.13;74.69;95104.50;5016016;28;20034;-73
2022/12/02 02:46:33;;;;;;;6.18;4.60;;;;;;;3.18;74.62;95111.19;5052370;28;20039;-73
2022/12/02 02:48:59;;;;;;;7.13;4.22;;;;;;;3.09;74.57;95102.16;5051030;28;20048;-73
2022/12/02 02:51:24;;;;;;;6.60;4.40;;;;;;;3.08;74.93;95114.16;5034456;28;20033;-73
2022/12/02 02:53:50;;;;;;;7.35;5.10;;;;;;;3.12;75.04;95115.69;5030697;28;20087;-73
2022/12/02 02:56:15;;;;;;;9.25;5.40;;;;;;;3.20;74.59;95124.75;5030992;28;20146;-73
2022/12/02 02:58:40;;;;;;;8.00;4.72;;;;;;;3.00;74.83;95103.44;5031061;28;20407;-73
2022/12/02 03:01:12;;;;;;;11.63;8.48;;;;;;;3.00;75.04;95118.84;5031139;28;20037;-73
2022/12/02 03:03:43;;;;;;;8.88;6.57;;;;;;;3.00;75.36;95116.28;5022734;28;20558;-73
2022/12/02 03:06:09;;;;;;;8.05;5.55;;;;;;;3.12;75.08;95125.97;5030325;28;20427;-73
2022/12/02 03:08:34;;;;;;;8.50;4.82;;;;;;;3.04;74.98;95117.81;5030781;28;20049;-72
2022/12/02 03:11:00;;;;;;;6.85;4.47;;;;;;;3.16;74.64;95128.38;5014036;28;20502;-73
2022/12/02 03:13:26;;;;;;;8.30;4.93;;;;;;;3.05;74.83;95126.34;5031507;28;20063;-73
2022/12/02 03:15:51;;;;;;;8.15;5.00;;;;;;;3.06;74.69;95128.81;5033861;28;20044;-73
2022/12/02 03:18:17;;;;;;;7.00;4.72;;;;;;;3.02;74.75;95129.88;5033818;28;20033;-73
2022/12/02 03:20:42;;;;;;;7.20;4.88;;;;;;;2.90;75.45;95125.34;5047050;28;20483;-73
2022/12/02 03:23:08;;;;;;;9.75;6.82;;;;;;;2.86;75.98;95128.94;5014131;28;20042;-73
2022/12/02 03:25:33;;;;;;;10.07;6.68;;;;;;;2.88;76.15;95132.28;5030396;28;20021;-72
2022/12/02 03:28:00;;;;;;;8.13;5.75;;;;;;;2.93;75.84;95135.47;5013739;28;20036;-73
2022/12/02 03:30:25;;;;;;;7.97;5.10;;;;;;;2.98;75.65;95135.22;5020883;28;20414;-73
2022/12/02 03:32:51;;;;;;;8.95;4.78;;;;;;;3.06;75.27;95126.25;5050162;28;20111;-73
2022/12/02 03:35:16;;;;;;;9.60;5.50;;;;;;;3.07;74.87;95137.38;5013812;28;20113;-73
2022/12/02 03:37:42;;;;;;;16.85;9.82;;;;;;;3.14;74.48;95134.41;5030024;28;20034;-73
2022/12/02 03:40:08;;;;;;;12.85;7.70;;;;;;;3.03;74.82;95131.53;5022611;28;20033;-73
2022/12/02 03:42:33;;;;;;;16.00;9.93;;;;;;;3.04;75.23;95145.22;5030274;28;20037;-73
2022/12/02 03:44:58;;;;;;;14.32;9.00;;;;;;;2.93;75.28;95127.75;5030236;28;20075;-73
2022/12/02 03:47:24;;;;;;;16.17;9.55;;;;;;;2.98;75.42;95146.34;5013557;28;20030;-73
2022/12/02 03:49:49;;;;;;;17.33;9.32;;;;;;;2.99;74.95;95142.84;5029233;28;20025;-73
2022/12/02 03:52:15;;;;;;;14.63;9.48;;;;;;;3.08;74.94;95151.84;5013484;28;20086;-73
2022/12/02 03:54:40;;;;;;;16.98;10.02;;;;;;;3.00;74.99;95148.81;5031178;28;20021;-73
2022/12/02 03:57:06;;;;;;;14.95;9.10;;;;;;;3.13;75.06;95155.84;5030627;28;20526;-73
2022/12/02 03:59:32;;;;;;;16.27;9.73;;;;;;;3.13;74.71;95150.72;5033463;28;20040;-73
2022/12/02 04:01:57;;;;;;;16.80;10.00;;;;;;;3.16;74.64;95156.63;5033286;28;20108;-73
2022/12/02 04:04:22;;;;;;;16.27;10.55;;;;;;;3.14;74.75;95148.97;5049999;28;20029;-73
2022/12/02 04:06:48;;;;;;;13.98;9.18;;;;;;;3.06;74.46;95141.63;5043056;28;20039;-73
2022/12/02 04:09:13;;;;;;;14.55;9.23;;;;;;;3.18;74.39;95157.38;5030092;28;20041;-72
2022/12/02 04:11:39;;;;;;;13.95;8.93;;;;;;;3.23;74.27;95163.09;5030980;28;20021;-72
2022/12/02 04:14:04;;;;;;;14.52;9.70;;;;;;;3.11;74.43;95155.09;5030019;28;20498;-73
2022/12/02 04:16:30;;;;;;;19.02;14.65;;;;;;;3.22;74.61;95164.03;5042424;28;20418;-73
2022/12/02 04:18:55;;;;;;;19.17;14.32;;;;;;;3.16;74.19;95156.63;5055425;28;20051;-73
2022/12/02 04:21:23;;;;;;;20.50;16.15;;;;;;;3.13;74.73;95163.56;5053841;28;20037;-73
2022/12/02 04:23:49;;;;;;;22.42;14.27;;;;;;;3.19;74.17;95159.03;5053948;28;20120;-73
2022/12/02 04:26:14;;;;;;;19.02;11.95;;;;;;;3.23;73.94;95168.25;5018539;28;20037;-73
2022/12/02 04:28:40;;;;;;;17.73;11.73;;;;;;;3.09;74.03;95163.78;5053481;28;20045;-73
2022/12/02 04:31:05;;;;;;;18.20;12.23;;;;;;;3.01;74.19;95151.31;5018928;28;20419;-73
2022/12/02 04:33:31;;;;;;;33.63;23.20;;;;;;;2.97;74.99;95170.31;5048588;28;20044;-73
2022/12/02 04:35:56;;;;;;;39.72;19.38;;;;;;;2.96;75.77;95165.28;5033443;28;20026;-73
2022/12/02 04:38:21;;;;;;;21.33;12.48;;;;;;;2.84;75.77;95157.25;5035024;28;20454;-73
2022/12/02 04:40:47;;;;;;;14.80;9.45;;;;;;;2.83;75.82;95170.16;5033428;28;20111;-73
2022/12/02 04:43:12;;;;;;;14.88;8.23;;;;;;;2.77;76.44;95176.41;5016804;28;20060;-73
2022/12/02 04:45:38;;;;;;;10.25;6.90;;;;;;;2.27;76.94;95169.28;5034488;28;20033;-73
2022/12/02 04:48:03;;;;;;;10.88;6.97;;;;;;;2.12;77.75;95172.53;5016960;28;20026;-73
2022/12/02 04:50:29;;;;;;;12.02;7.53;;;;;;;2.00;78.17;95174.69;5032533;28;20042;-73
2022/12/02 04:52:54;;;;;;;11.30;7.55;;;;;;;1.94;78.55;95174.97;5032058;28;20040;-73
2022/12/02 04:55:20;;;;;;;15.77;7.85;;;;;;;1.93;79.12;95181.00;5032017;28;20025;-73
2022/12/02 04:57:45;;;;;;;10.25;7.72;;;;;;;1.83;78.67;95172.03;5032279;28;20428;-73
2022/12/02 05:00:11;;;;;;;10.75;7.38;;;;;;;1.90;79.17;95193.13;5032639;28;20025;-73
2022/12/02 05:02:36;;;;;;;13.90;7.43;;;;;;;1.76;79.33;95174.03;5033125;28;20113;-73
2022/12/02 05:05:02;;;;;;;11.50;6.88;;;;;;;1.75;79.63;95182.59;5034458;28;20029;-73
2022/12/02 05:07:27;;;;;;;11.70;7.82;;;;;;;1.76;79.42;95189.41;5033066;28;20480;-73
2022/12/02 05:09:53;;;;;;;12.75;7.50;;;;;;;1.65;80.17;95183.91;5032963;28;20377;-73
2022/12/02 05:12:18;;;;;;;17.00;8.73;;;;;;;1.53;80.46;95181.84;5032710;28;20029;-73
2022/12/02 05:14:44;;;;;;;16.67;9.25;;;;;;;1.51;80.34;95173.41;5005557;28;20036;-73
2022/12/02 05:17:09;;;;;;;16.17;9.00;;;;;;;1.72;80.31;95192.16;5045639;28;20090;-73
2022/12/02 05:19:35;;;;;;;16.33;9.32;;;;;;;1.64;80.12;95179.66;5030153;28;20029;-73
2022/12/02 05:22:00;;;;;;;17.98;8.98;;;;;;;1.65;80.38;95183.91;5031165;28;20074;-74
2022/12/02 05:24:26;;;;;;;15.57;9.40;;;;;;;1.72;79.80;95177.63;5015268;28;20029;-73
2022/12/02 05:26:51;;;;;;;19.83;9.73;;;;;;;1.79;79.97;95191.03;5048101;28;20021;-73
2022/12/02 05:29:17;;;;;;;16.05;9.05;;;;;;;1.89;80.04;95194.84;5031335;28;20383;-73
2022/12/02 05:31:42;;;;;;;15.00;8.82;;;;;;;1.92;79.65;95184.47;5046883;28;20568;-73
2022/12/02 05:34:07;;;;;;;14.65;9.00;;;;;;;2.06;79.71;95199.22;5014473;28;20031;-72
2022/12/02 05:36:33;;;;;;;18.35;9.93;;;;;;;2.13;79.80;95194.69;5049023;28;20044;-73
2022/12/02 05:38:58;;;;;;;16.42;9.38;;;;;;;2.28;78.88;95191.44;5048827;28;20032;-73
2022/12/02 05:41:24;;;;;;;18.33;10.77;;;;;;;2.40;78.48;95190.09;5046936;28;20036;-73
2022/12/02 05:43:49;;;;;;;16.42;10.23;;;;;;;2.57;77.47;95194.44;5050804;28;20029;-73
2022/12/02 05:46:18;;;;;;;18.67;11.07;;;;;;;2.55;78.11;95199.63;5049669;28;20040;-73
2022/12/02 05:48:45;;;;;;;20.42;11.38;;;;;;;2.59;77.41;95190.91;5045431;28;20068;-73
2022/12/02 05:51:15;;;;;;;22.27;13.50;;;;;;;2.72;77.04;95205.72;5047459;28;20562;-73
2022/12/02 05:53:41;;;;;;;19.83;12.43;;;;;;;2.74;76.53;95196.25;5031898;28;20033;-73
2022/12/02 05:56:12;;;;;;;20.88;12.95;;;;;;;2.75;76.75;95195.31;5030906;28;20044;-73
2022/12/02 05:58:39;;;;;;;25.33;14.38;;;;;;;2.72;77.15;95210.88;5049304;28;20041;-73
2022/12/02 06:01:12;;;;;;;30.58;16.77;;;;;;;2.82;76.60;95209.56;5046151;28;20037;-73
2022/12/02 06:03:38;;;;;;;29.48;16.98;;;;;;;2.84;76.84;95212.84;5032586;28;20156;-73
2022/12/02 06:06:04;;;;;;;30.45;19.00;;;;;;;2.91;76.22;95214.25;5046603;28;20037;-73
2022/12/02 06:08:33;;;;;;;30.13;17.83;;;;;;;2.94;76.10;95218.41;5031433;28;20040;-73
2022/12/02 06:11:00;;;;;;;37.67;23.50;;;;;;;2.80;76.42;95216.47;5028425;28;20030;-73
2022/12/02 06:13:27;;;;;;;42.17;27.20;;;;;;;2.63;77.52;95224.94;5012199;28;20091;-73
2022/12/02 06:15:53;;;;;;;36.03;20.02;;;;;;;2.54;77.39;95226.19;5016815;28;20025;-70
2022/12/02 06:18:23;;;;;;;31.40;17.55;;;;;;;2.09;78.82;95224.75;5026086;28;20043;-69
2022/12/02 06:20:54;;;;;;;27.45;15.35;;;;;;;2.10;79.50;95220.47;5023859;28;20087;-69
2022/12/02 06:23:20;;;;;;;25.52;15.18;;;;;;;2.36;78.60;95227.81;5008778;28;20407;-69
2022/12/02 06:25:46;;;;;;;23.13;13.30;;;;;;;2.48;78.88;95241.88;5007702;28;20033;-70
2022/12/02 06:28:30;;;;;;;22.63;12.05;;;;;;;2.54;78.43;95233.88;5044601;28;20040;-69
2022/12/02 06:31:30;;;;;;;23.42;13.15;;;;;;;2.34;79.15;95231.34;5040343;28;20087;-70
2022/12/02 06:33:56;;;;;;;23.33;11.85;;;;;;;2.18;79.19;95211.53;5021492;28;20132;-69
2022/12/02 06:36:22;;;;;;;28.33;13.93;;;;;;;2.22;79.08;95248.13;5037058;28;20100;-69
2022/12/02 06:38:55;;;;;;;22.17;11.68;;;;;;;2.31;79.11;95242.56;5038212;28;20055;-70
2022/12/02 06:41:22;;;;;;;22.33;13.00;;;;;;;2.28;79.62;95241.88;5019351;28;20029;-70
2022/12/02 06:46:33;;;;;;;24.60;13.38;;;;;;;2.23;80.00;95240.38;5029056;28;20138;-69
2022/12/02 06:48:59;;;;;;;25.00;13.18;;;;;;;2.42;78.79;95235.28;5031590;28;20036;-69
2022/12/02 06:51:24;;;;;;;24.20;12.60;;;;;;;2.36;79.63;95242.38;5022226;28;20085;-69
2022/12/02 06:53:50;;;;;;;30.58;14.05;;;;;;;2.49;78.63;95235.00;5039004;28;20052;-68
2022/12/02 06:56:20;;;;;;;29.50;13.98;;;;;;;2.53;78.54;95249.34;5022819;28;20119;-69
2022/12/02 06:58:47;;;;;;;22.80;12.90;;;;;;;2.36;79.05;95244.94;5037082;28;20043;-68
2022/12/02 07:01:19;;;;;;;21.20;11.82;;;;;;;2.32;79.51;95249.38;5036345;28;20034;-69
2022/12/02 07:03:47;;;;;;;;;;;;;;;2.29;79.72;95249.53;5039908;28;20101;-68
2022/12/02 07:06:13;;;;;;;36.85;15.43;;;;;;;2.03;80.42;95225.00;5036017;28;20834;-68
2022/12/02 07:08:39;;;;;;;24.88;13.52;;;;;;;2.37;80.02;95250.03;5039971;28;20045;-68
2022/12/02 07:11:48;;;;;;;22.58;13.68;;;;;;;2.44;79.59;95240.31;5037090;28;20506;-68
2022/12/02 07:14:18;;;;;;;27.95;14.63;;;;;;;2.52;79.43;95240.81;5040085;28;20500;-68
2022/12/02 07:16:44;;;;;;;27.02;14.82;;;;;;;2.68;78.99;95249.50;5023072;28;20037;-68
2022/12/02 07:19:13;;;;;;;24.50;14.52;;;;;;;2.85;77.10;95242.75;5044513;28;20041;-68
2022/12/02 07:21:38;;;;;;;23.23;13.50;;;;;;;2.90;76.91;95261.34;5021093;28;20165;-68
2022/12/02 07:24:04;;;;;;;23.77;13.75;;;;;;;2.88;77.52;95251.16;5041771;28;20041;-68
2022/12/02 07:26:29;;;;;;;23.70;12.05;;;;;;;2.98;76.41;95249.00;5028345;28;20041;-68
2022/12/02 07:28:57;;;;;;;23.70;14.27;;;;;;;2.97;76.98;95255.03;5029829;28;20040;-69
2022/12/02 07:31:29;;;;;;;24.10;13.77;;;;;;;3.02;76.93;95258.22;5038407;28;20032;-69
2022/12/02 07:33:54;;;;;;;19.98;11.98;;;;;;;3.12;76.05;95262.03;5026290;28;20033;-69
2022/12/02 07:36:19;;;;;;;19.95;12.70;;;;;;;3.11;76.04;95251.81;5022179;28;20024;-69
2022/12/02 07:38:45;;;;;;;20.25;12.05;;;;;;;3.05;76.64;95252.94;5044013;28;20106;-68
2022/12/02 07:41:12;;;;;;;20.33;12.38;;;;;;;3.04;76.36;95253.84;5037285;28;20044;-68
2022/12/02 07:43:37;;;;;;;22.73;14.10;;;;;;;2.99;76.41;95260.94;5040876;28;20041;-69
2022/12/02 07:46:03;;;;;;;22.70;12.50;;;;;;;2.77;76.84;95257.69;5032021;28;20036;-68
2022/12/02 07:48:28;;;;;;;21.42;12.55;;;;;;;2.72;77.18;95259.63;5044908;28;20046;-69
2022/12/02 07:50:54;;;;;;;22.15;12.05;;;;;;;2.86;77.19;95258.06;5039781;28;20022;-69
2022/12/02 07:53:19;;;;;;;23.58;11.60;;;;;;;3.07;76.11;95261.41;5037837;28;20490;-69
2022/12/02 07:55:45;;;;;;;20.63;11.13;;;;;;;3.21;76.13;95268.47;5046064;28;20568;-70
2022/12/02 07:58:10;;;;;;;22.05;12.35;;;;;;;3.13;76.74;95270.56;5048997;28;20037;-69
2022/12/02 08:00:36;;;;;;;23.95;12.52;;;;;;;3.29;75.89;95270.69;5037560;28;20047;-68
2022/12/02 08:03:01;;;;;;;27.65;13.85;;;;;;;3.35;75.79;95276.34;5036630;28;20037;-69
2022/12/02 08:05:27;;;;;;;29.58;14.90;;;;;;;3.31;76.28;95258.59;5038534;28;20033;-69
2022/12/02 08:07:52;;;;;;;23.83;14.02;;;;;;;3.54;75.01;95265.22;5035371;28;20040;-68
2022/12/02 08:10:18;;;;;;;30.40;15.98;;;;;;;3.63;74.82;95276.78;5037088;28;20403;-70
2022/12/02 08:12:43;;;;;;;28.80;14.85;;;;;;;3.52;74.89;95262.72;5038260;28;20499;-69
2022/12/02 08:15:09;;;;;;;23.67;12.63;;;;;;;3.63;75.09;95279.34;5038272;28;20028;-68
2022/12/02 08:17:35;;;;;;;26.10;13.27;;;;;;;3.71;74.62;95278.06;5040090;28;20033;-68
2022/12/02 08:20:01;;;;;;;29.42;15.45;;;;;;;3.81;74.40;95273.31;5039378;28;20022;-68
2022/12/02 08:22:26;;;;;;;31.50;16.80;;;;;;;3.83;74.51;95276.63;5036189;28;20017;-68
2022/12/02 08:24:52;;;;;;;29.00;15.57;;;;;;;3.88;74.51;95279.00;5040271;28;20025;-69
2022/12/02 08:27:17;;;;;;;31.10;15.30;;;;;;;3.73;74.76;95267.69;5035610;28;20026;-69
2022/12/02 08:29:43;;;;;;;25.48;14.63;;;;;;;3.88;74.64;95282.38;5006958;28;20115;-69
2022/12/02 08:32:08;;;;;;;28.50;15.25;;;;;;;3.96;74.33;95284.59;5016537;28;20025;-68
2022/12/02 08:34:34;;;;;;;26.08;14.75;;;;;;;4.05;73.58;95291.00;5021549;28;20559;-68
2022/12/02 08:36:59;;;;;;;21.95;13.43;;;;;;;4.03;73.82;95279.03;5037173;28;20033;-69
2022/12/02 08:39:25;;;;;;;38.20;16.73;;;;;;;4.00;74.28;95279.19;5037380;28;20033;-69
2022/12/02 08:41:50;;;;;;;33.95;15.50;;;;;;;4.08;73.96;95278.81;5020842;28;20056;-69
2022/12/02 08:44:15;;;;;;;27.90;13.63;;;;;;;3.92;74.65;95288.19;5037589;28;20479;-68
2022/12/02 08:46:41;;;;;;;22.08;13.65;;;;;;;3.92;75.10;95286.47;5019524;28;20418;-69
2022/12/02 08:49:06;;;;;;;24.85;15.15;;;;;;;3.98;74.92;95301.59;5036518;28;20033;-69
2022/12/02 08:51:32;;;;;;;26.17;15.30;;;;;;;3.92;74.76;95280.50;5036475;28;20479;-68
2022/12/02 08:53:58;;;;;;;22.70;14.07;;;;;;;4.16;74.71;95296.44;5039473;28;20511;-69
2022/12/02 08:56:23;;;;;;;22.67;13.10;;;;;;;4.24;73.49;95299.47;5021154;28;20061;-69
2022/12/02 08:58:49;;;;;;;23.42;14.05;;;;;;;4.19;74.04;95299.69;5029226;28;20044;-68
2022/12/02 09:01:14;;;;;;;21.45;12.85;;;;;;;4.22;73.95;95293.56;5029274;28;20450;-69
2022/12/02 09:03:40;;;;;;;19.05;12.43;;;;;;;4.22;74.15;95288.44;5032843;28;20045;-68
2022/12/02 09:06:05;;;;;;;24.83;13.38;;;;;;;4.36;72.95;95296.28;5033857;28;20029;-68
2022/12/02 09:08:31;;;;;;;23.10;13.98;;;;;;;4.41;72.50;95296.88;5033974;28;20061;-68
2022/12/02 09:10:56;;;;;;;23.77;12.65;;;;;;;4.21;73.41;95291.91;5032653;28;20025;-69
2022/12/02 09:13:21;;;;;;;21.73;12.63;;;;;;;4.26;73.23;95287.34;5032606;28;20041;-68
2022/12/02 09:15:47;;;;;;;23.50;12.35;;;;;;;4.28;73.24;95282.13;5015368;28;20037;-68
2022/12/02 09:18:12;;;;;;;23.40;13.05;;;;;;;4.17;73.28;95257.78;5033568;28;20167;-69
2022/12/02 09:20:38;;;;;;;20.65;12.68;;;;;;;4.37;73.80;95290.22;5032316;28;20084;-68
2022/12/02 09:23:03;;;;;;;21.25;12.73;;;;;;;4.39;72.78;95285.00;5032125;28;20029;-68
2022/12/02 09:25:29;;;;;;;21.95;12.55;;;;;;;4.40;72.94;95284.94;5033636;28;20041;-68
2022/12/02 09:27:54;;;;;;;22.33;12.68;;;;;;;4.47;73.08;95291.41;5032191;28;20044;-69
2022/12/02 09:30:20;;;;;;;22.45;13.35;;;;;;;4.46;72.26;95291.50;5032165;28;20036;-68
2022/12/02 09:32:45;;;;;;;21.38;13.02;;;;;;;4.44;72.79;95283.03;5033471;28;20041;-68
2022/12/02 09:35:11;;;;;;;23.85;13.40;;;;;;;4.53;72.77;95284.28;5015652;28;20478;-69
2022/12/02 09:37:36;;;;;;;28.17;15.20;;;;;;;4.24;73.76;95277.16;4999164;28;20056;-68
2022/12/02 09:40:02;;;;;;;18.67;11.50;;;;;;;4.40;72.69;95276.34;5032154;28;20475;-69
2022/12/02 09:42:27;;;;;;;19.23;11.65;;;;;;;4.34;73.20;95272.34;5052510;28;20411;-68
2022/12/02 09:44:53;;;;;;;20.48;11.13;;;;;;;4.49;73.09;95281.06;5051920;28;20043;-68
2022/12/02 09:47:18;;;;;;;21.50;11.77;;;;;;;4.49;72.88;95265.63;5051693;28;20041;-69
2022/12/02 09:49:44;;;;;;;20.63;12.75;;;;;;;4.60;72.88;95270.22;5051782;28;20086;-68
2022/12/02 09:52:14;;;;;;;30.58;16.95;;;;;;;4.61;72.89;95269.28;5034997;28;20027;-70
2022/12/02 09:54:40;;;;;;;29.42;14.98;;;;;;;4.24;73.41;95268.63;5035315;28;20037;-68
2022/12/02 09:57:11;;;;;;;34.47;17.35;;;;;;;4.30;74.29;95270.88;5051551;28;20045;-69
2022/12/02 09:59:36;;;;;;;21.98;14.02;;;;;;;4.28;74.17;95262.38;5031643;28;20045;-68
2022/12/02 10:02:02;;;;;;;22.08;12.40;;;;;;;4.10;74.51;95258.19;5032860;28;20403;-69
2022/12/02 10:04:27;;;;;;;19.90;10.98;;;;;;;4.28;74.05;95267.53;5015262;28;20038;-68
2022/12/02 10:06:53;;;;;;;21.85;13.57;;;;;;;4.25;74.35;95260.81;5031472;28;20033;-69
2022/12/02 10:09:24;;;;;;;25.13;13.93;;;;;;;4.19;74.35;95257.72;5031447;28;20547;-68
2022/12/02 10:11:50;;;;;;;;;;;;;;;4.40;74.51;95266.94;5015946;28;20029;-68
2022/12/02 10:14:15;;;;;;;24.13;12.88;;;;;;;4.47;74.23;95262.28;5032584;28;19971;-68
2022/12/02 10:16:41;;;;;;;21.52;11.88;;;;;;;4.38;74.19;95253.31;5030997;28;20447;-69
2022/12/02 10:19:06;;;;;;;18.88;11.73;;;;;;;4.37;74.31;95250.78;5026091;28;20115;-68
2022/12/02 10:21:32;;;;;;;17.75;11.05;;;;;;;4.57;73.93;95265.19;5022146;28;20492;-68
2022/12/02 10:23:58;;;;;;;20.27;11.57;;;;;;;4.58;74.03;95261.72;5026942;28;20035;-68
2022/12/02 10:26:24;;;;;;;22.40;14.23;;;;;;;4.55;73.88;95252.44;5020861;28;20041;-68
2022/12/02 10:28:59;;;;;;;21.85;13.25;;;;;;;4.65;73.60;95256.19;5022348;28;20043;-68
2022/12/02 10:31:25;;;;;;;20.33;11.82;;;;;;;4.79;73.15;95258.03;5046577;28;20096;-68
2022/12/02 10:33:52;;;;;;;22.55;13.10;;;;;;;4.65;73.71;95239.88;5045712;28;20056;-69
2022/12/02 10:36:33;;;;;;;22.17;12.57;;;;;;;4.79;73.56;95241.75;5030675;28;20110;-68
2022/12/02 10:39:20;;;;;;;21.25;11.98;;;;;;;4.87;73.47;95252.47;5047479;28;20127;-69
2022/12/02 10:42:04;;;;;;;19.55;11.82;;;;;;;4.78;73.08;95255.53;5046464;28;20566;-68
2022/12/02 10:44:41;;;;;;;17.15;10.40;;;;;;;4.73;73.38;95240.31;5049486;28;20068;-68
2022/12/02 10:47:23;;;;;;;14.85;10.05;;;;;;;4.96;72.82;95245.97;5022021;28;20115;-68
2022/12/02 10:49:51;;;;;;;16.52;10.27;;;;;;;4.94;72.90;95246.06;5009428;28;20061;-68
2022/12/02 10:52:17;;;;;;;17.35;10.77;;;;;;;5.01;72.84;95231.13;5041970;28;20078;-69
2022/12/02 10:54:45;;;;;;;16.50;10.15;;;;;;;5.14;72.57;95253.53;5013275;28;20513;-69
2022/12/02 10:57:15;;;;;;;14.52;8.90;;;;;;;5.17;71.72;95231.13;5028258;28;20060;-69
2022/12/02 10:59:40;;;;;;;14.00;8.65;;;;;;;5.23;71.56;95241.91;5037067;28;20057;-68
2022/12/02 11:02:23;;;;;;;15.93;9.88;;;;;;;5.24;71.81;95243.59;5040138;28;20033;-68
2022/12/02 11:04:49;;;;;;;14.98;9.55;;;;;;;5.33;70.92;95232.75;5011187;28;20128;-68
2022/12/02 11:07:15;;;;;;;16.60;10.00;;;;;;;5.36;70.77;95242.06;5039773;28;20104;-69
2022/12/02 11:09:44;;;;;;;16.60;10.68;;;;;;;5.37;70.93;95244.53;5022294;28;20033;-69
2022/12/02 11:12:48;;;;;;;19.00;11.55;;;;;;;5.49;70.75;95239.63;5040949;28;20119;-70
2022/12/02 11:15:39;;;;;;;17.73;12.27;;;;;;;5.52;70.75;95248.03;5038804;28;20045;-69
2022/12/02 11:18:06;;;;;;;18.65;12.32;;;;;;;5.44;70.70;95241.66;5033583;28;20063;-68
2022/12/02 11:20:35;;;;;;;19.15;12.35;;;;;;;5.51;71.06;95251.50;5037348;28;20133;-69
2022/12/02 11:23:25;;;;;;;19.45;12.10;;;;;;;5.50;70.83;95252.44;5038522;28;20051;-69
2022/12/02 11:26:11;;;;;;;20.55;12.98;;;;;;;5.56;70.13;95259.00;5035618;28;20049;-69
2022/12/02 11:28:52;;;;;;;22.27;14.82;;;;;;;5.62;70.11;95255.25;5025502;28;20123;-68
2022/12/02 11:31:26;;;;;;;22.05;14.05;;;;;;;5.50;70.57;95249.03;5036446;28;20040;-69
2022/12/02 11:33:53;;;;;;;19.73;13.65;;;;;;;5.56;70.85;95264.97;5025882;28;20061;-69
2022/12/02 11:36:25;;;;;;;20.20;12.98;;;;;;;5.63;70.72;95262.91;5034433;28;20037;-68
2022/12/02 11:38:50;;;;;;;24.02;15.95;;;;;;;5.57;71.18;95263.22;5038937;28;20052;-69